createdAt,value
2023-05-22T00:00:56.646Z,100437.65
2023-05-22T00:03:28.915Z,100434.55
2023-05-22T00:06:00.317Z,100432.50
2023-05-22T00:08:31.150Z,100433.38
2023-05-22T00:11:01.676Z,100430.63
2023-05-22T00:13:32.509Z,100431.32
2023-05-22T00:16:03.152Z,100431.34
2023-05-22T00:18:33.650Z,100432.23
2023-05-22T00:21:04.430Z,100431.39
2023-05-22T00:23:34.936Z,100430.38
2023-05-22T00:26:05.726Z,100433.70
2023-05-22T00:28:36.422Z,100433.20
2023-05-22T00:31:07.245Z,100432.86
2023-05-22T00:33:38.409Z,100434.45
2023-05-22T00:36:10.165Z,100437.08
2023-05-22T00:38:39.150Z,100435.89
2023-05-22T00:41:09.736Z,100429.67
2023-05-22T00:43:41.143Z,100430.92
2023-05-22T00:46:12.730Z,100429.37
2023-05-22T00:48:43.384Z,100430.25
2023-05-22T00:51:14.732Z,100429.56
2023-05-22T00:53:46.125Z,100427.49
2023-05-22T00:56:17.885Z,100425.27
2023-05-22T00:58:48.819Z,100425.47
2023-05-22T01:01:19.882Z,100426.00
2023-05-22T01:03:51.563Z,100424.27
2023-05-22T01:06:23.347Z,100424.82
2023-05-22T01:08:53.878Z,100424.33
2023-05-22T01:11:29.655Z,100429.02
2023-05-22T01:14:08.471Z,100429.19
2023-05-22T01:16:48.543Z,100429.89
2023-05-22T01:19:42.130Z,100429.05
2023-05-22T01:22:28.207Z,100434.09
2023-05-22T01:25:21.253Z,100434.64
2023-05-22T01:28:04.085Z,100433.08
2023-05-22T01:30:57.472Z,100435.34
2023-05-22T01:33:29.905Z,100433.27
2023-05-22T01:36:03.968Z,100433.30
2023-05-22T01:38:35.603Z,100434.17
2023-05-22T01:41:06.923Z,100432.79
2023-05-22T01:43:37.662Z,100432.98
2023-05-22T01:46:09.059Z,100435.58
2023-05-22T01:48:39.586Z,100435.77
2023-05-22T01:51:16.128Z,100436.10
2023-05-22T01:53:53.621Z,100437.67
2023-05-22T01:56:31.631Z,100437.16
2023-05-22T01:59:08.889Z,100435.61
2023-05-22T02:01:40.576Z,100435.98
2023-05-22T02:04:11.189Z,100429.93
2023-05-22T02:06:41.527Z,100430.80
2023-05-22T02:09:13.775Z,100429.42
2023-05-22T02:11:45.255Z,100427.36
2023-05-22T02:14:16.284Z,100428.08
2023-05-22T02:16:47.801Z,100422.89
2023-05-22T02:19:18.761Z,100421.67
2023-05-22T02:21:48.838Z,100421.16
2023-05-22T02:24:19.469Z,100420.83
2023-05-22T02:26:50.240Z,100417.90
2023-05-22T02:29:21.201Z,100423.45
2023-05-22T02:31:51.729Z,100421.90
2023-05-22T02:34:22.339Z,100423.63
2023-05-22T02:36:52.908Z,100425.71
2023-05-22T02:39:23.578Z,100426.44
2023-05-22T02:41:54.093Z,100426.96
2023-05-22T02:44:24.796Z,100421.94
2023-05-22T02:46:55.505Z,100420.21
2023-05-22T02:49:26.545Z,100424.90
2023-05-22T02:51:57.074Z,100423.54
2023-05-22T02:54:27.561Z,100419.56
2023-05-22T02:56:58.151Z,100421.11
2023-05-22T02:59:28.652Z,100423.54
2023-05-22T03:01:59.258Z,100421.67
2023-05-22T03:04:30.488Z,100420.80
2023-05-22T03:07:01.704Z,100420.63
2023-05-22T03:09:32.281Z,100424.95
2023-05-22T03:12:02.972Z,100418.73
2023-05-22T03:14:33.556Z,100420.30
2023-05-22T03:17:04.739Z,100420.49
2023-05-22T03:19:35.386Z,100424.48
2023-05-22T03:22:06.725Z,100420.66
2023-05-22T03:24:37.684Z,100417.55
2023-05-22T03:27:08.815Z,100416.85
2023-05-22T03:29:42.709Z,100413.06
2023-05-22T03:32:13.816Z,100414.98
2023-05-22T03:34:44.627Z,100415.33
2023-05-22T03:37:15.391Z,100420.69
2023-05-22T03:39:46.049Z,100418.95
2023-05-22T03:42:29.708Z,100415.46
2023-05-22T03:45:00.630Z,100413.05
2023-05-22T03:47:31.274Z,100413.77
2023-05-22T03:50:01.954Z,100412.21
2023-05-22T03:52:32.466Z,100413.59
2023-05-22T03:55:03.485Z,100417.39
2023-05-22T03:57:33.189Z,100415.85
2023-05-22T04:00:09.907Z,100417.76
2023-05-22T04:02:45.402Z,100412.73
2023-05-22T04:05:16.824Z,100409.10
2023-05-22T04:07:47.511Z,100410.69
2023-05-22T04:10:18.122Z,100412.41
2023-05-22T04:12:49.136Z,100412.59
2023-05-22T04:15:19.847Z,100412.06
2023-05-22T04:17:50.522Z,100407.05
2023-05-22T04:20:22.337Z,100411.20
2023-05-22T04:22:55.411Z,100405.67
2023-05-22T04:25:25.910Z,100408.43
2023-05-22T04:27:56.700Z,100409.48
2023-05-22T04:30:27.318Z,100410.51
2023-05-22T04:32:58.371Z,100408.09
2023-05-22T04:35:30.591Z,100408.27
2023-05-22T04:38:02.221Z,100406.89
2023-05-22T04:40:33.574Z,100404.29
2023-05-22T04:43:04.381Z,100406.19
2023-05-22T04:45:35.588Z,100410.00
2023-05-22T04:48:08.046Z,100407.23
2023-05-22T04:50:40.013Z,100406.69
2023-05-22T04:53:12.709Z,100408.41
2023-05-22T04:55:43.268Z,100406.00
2023-05-22T04:58:13.761Z,100409.80
2023-05-22T05:00:44.564Z,100410.84
2023-05-22T05:03:15.743Z,100409.80
2023-05-22T05:05:47.808Z,100410.15
2023-05-22T05:08:21.715Z,100409.80
2023-05-22T05:10:52.830Z,100409.98
2023-05-22T05:13:23.551Z,100412.55
2023-05-22T05:15:55.910Z,100412.89
2023-05-22T05:18:28.164Z,100417.73
2023-05-22T05:20:58.961Z,100414.11
2023-05-22T05:23:29.822Z,100413.40
2023-05-22T05:26:00.333Z,100407.20
2023-05-22T05:28:31.744Z,100405.48
2023-05-22T05:31:04.037Z,100409.61
2023-05-22T05:33:40.527Z,100408.90
2023-05-22T05:36:40.747Z,100411.85
2023-05-22T05:39:11.331Z,100411.50
2023-05-22T05:41:42.220Z,100413.73
2023-05-22T05:44:13.492Z,100413.89
2023-05-22T05:46:44.171Z,100409.56
2023-05-22T05:49:15.601Z,100406.10
2023-05-22T05:51:46.648Z,100407.48
2023-05-22T05:54:16.994Z,100401.73
2023-05-22T05:56:49.001Z,100405.20
2023-05-22T05:59:19.926Z,100406.59
2023-05-22T06:02:02.126Z,100402.09
2023-05-22T06:04:33.685Z,100402.60
2023-05-22T06:07:07.995Z,100405.02
2023-05-22T06:09:47.875Z,100401.88
2023-05-22T06:12:22.804Z,100401.70
2023-05-22T06:14:53.427Z,100402.73
2023-05-22T06:17:23.962Z,100398.41
2023-05-22T06:19:54.555Z,100394.26
2023-05-22T06:22:25.764Z,100397.71
2023-05-22T06:24:56.876Z,100396.85
2023-05-22T06:27:29.215Z,100398.38
2023-05-22T06:30:00.411Z,100397.84
2023-05-22T06:32:33.163Z,100405.11
2023-05-22T06:35:05.067Z,100403.89
2023-05-22T06:37:36.884Z,100404.06
2023-05-22T06:40:11.156Z,100399.88
2023-05-22T06:42:47.218Z,100401.08
2023-05-22T06:45:37.590Z,100398.83
2023-05-22T06:48:25.330Z,100398.83
2023-05-22T06:51:11.549Z,100399.34
2023-05-22T06:53:43.490Z,100402.44
2023-05-22T06:56:20.754Z,100401.89
2023-05-22T06:59:13.186Z,100404.14
2023-05-22T07:01:59.358Z,100407.77
2023-05-22T07:04:38.525Z,100410.84
2023-05-22T07:07:16.320Z,100413.95
2023-05-22T07:09:46.902Z,100408.57
2023-05-22T07:12:17.513Z,100404.42
2023-05-22T07:14:48.483Z,100404.06
2023-05-22T07:17:20.635Z,100404.05
2023-05-22T07:19:51.290Z,100404.04
2023-05-22T07:22:21.878Z,100402.13
2023-05-22T07:24:52.579Z,100404.36
2023-05-22T07:27:23.244Z,100400.00
2023-05-22T07:29:53.824Z,100402.25
2023-05-22T07:32:24.943Z,100399.48
2023-05-22T07:34:56.053Z,100403.27
2023-05-22T07:37:26.747Z,100404.45
2023-05-22T07:39:57.505Z,100399.92
2023-05-22T07:42:29.398Z,100401.13
2023-05-22T07:45:00.048Z,100401.98
2023-05-22T07:47:30.723Z,100400.20
2023-05-22T07:50:04.266Z,100397.41
2023-05-22T07:52:36.090Z,100394.98
2023-05-22T07:55:08.769Z,100393.08
2023-05-22T07:57:40.880Z,100387.69
2023-05-22T08:00:27.340Z,100389.71
2023-05-22T08:02:58.044Z,100392.30
2023-05-22T08:05:28.677Z,100389.34
2023-05-22T08:07:59.225Z,100388.30
2023-05-22T08:10:37.235Z,100386.70
2023-05-22T08:13:19.448Z,100382.86
2023-05-22T08:15:49.978Z,100387.52
2023-05-22T08:18:22.460Z,100385.42
2023-05-22T08:20:54.961Z,100387.98
2023-05-22T08:23:25.750Z,100385.53
2023-05-22T08:25:56.305Z,100382.22
2023-05-22T08:28:26.770Z,100382.73
2023-05-22T08:30:57.822Z,100383.54
2023-05-22T08:33:28.354Z,100386.30
2023-05-22T08:35:58.941Z,100383.85
2023-05-22T08:38:29.490Z,100383.98
2023-05-22T08:41:00.971Z,100382.95
2023-05-22T08:43:31.960Z,100381.02
2023-05-22T08:46:08.854Z,100377.52
2023-05-22T08:48:42.151Z,100371.94
2023-05-22T08:51:19.721Z,100374.33
2023-05-22T08:53:55.776Z,100366.34
2023-05-22T08:56:29.283Z,100364.77
2023-05-22T08:59:01.358Z,100361.06
2023-05-22T09:01:32.534Z,100362.77
2023-05-22T09:04:04.714Z,100360.66
2023-05-22T09:06:35.320Z,100355.09
2023-05-22T09:09:06.075Z,100357.11
2023-05-22T09:11:36.771Z,100356.05
2023-05-22T09:14:11.672Z,100352.91
2023-05-22T09:16:49.032Z,100347.86
2023-05-22T09:19:19.748Z,100344.38
2023-05-22T09:21:51.378Z,100340.69
2023-05-22T09:24:21.931Z,100339.96
2023-05-22T09:26:53.148Z,100346.88
2023-05-22T09:29:23.733Z,100342.34
2023-05-22T09:31:54.389Z,100343.84
2023-05-22T09:34:31.083Z,100338.09
2023-05-22T09:37:06.654Z,100339.77
2023-05-22T09:39:44.544Z,100336.95
2023-05-22T09:42:15.098Z,100337.77
2023-05-22T09:44:48.971Z,100323.37
2023-05-22T09:47:19.755Z,100328.73
2023-05-22T09:49:50.296Z,100327.31
2023-05-22T09:52:21.940Z,100328.64
2023-05-22T09:54:55.010Z,100328.42
2023-05-22T09:57:27.469Z,100322.14
2023-05-22T10:00:01.043Z,100319.15
2023-05-22T10:02:33.682Z,100320.83
2023-05-22T10:05:07.267Z,100308.11
2023-05-22T10:07:49.901Z,100308.38
2023-05-22T10:10:22.372Z,100304.48
2023-05-22T10:12:58.046Z,100303.54
2023-05-22T10:15:29.363Z,100298.27
2023-05-22T10:18:01.490Z,100306.03
2023-05-22T10:20:32.670Z,100304.92
2023-05-22T10:23:05.953Z,100300.20
2023-05-22T10:25:38.669Z,100301.20
2023-05-22T10:28:10.463Z,100301.68
2023-05-22T10:30:49.603Z,100299.70
2023-05-22T10:33:46.150Z,100295.32
2023-05-22T10:36:31.644Z,100295.80
2023-05-22T10:39:17.625Z,100294.85
2023-05-22T10:41:48.651Z,100290.30
2023-05-22T10:44:20.155Z,100290.09
2023-05-22T10:46:52.349Z,100290.42
2023-05-22T10:49:26.062Z,100289.37
2023-05-22T10:51:59.781Z,100284.98
2023-05-22T10:54:44.474Z,100290.48
2023-05-22T10:57:17.602Z,100288.36
2023-05-22T10:59:49.802Z,100285.55
2023-05-22T11:02:29.557Z,100280.48
2023-05-22T11:05:27.569Z,100280.43
2023-05-22T11:08:11.918Z,100279.34
2023-05-22T11:10:59.599Z,100277.39
2023-05-22T11:13:30.921Z,100277.90
2023-05-22T11:16:05.522Z,100274.91
2023-05-22T11:18:36.220Z,100278.82
2023-05-22T11:21:10.569Z,100276.31
2023-05-22T11:23:41.141Z,100275.00
2023-05-22T11:26:22.578Z,100268.64
2023-05-22T11:28:54.276Z,100272.16
2023-05-22T11:31:26.455Z,100271.20
2023-05-22T11:33:57.061Z,100267.05
2023-05-22T11:36:28.693Z,100264.38
2023-05-22T11:39:00.226Z,100266.16
2023-05-22T11:41:35.355Z,100263.45
2023-05-22T11:44:09.020Z,100262.77
2023-05-22T11:46:42.110Z,100255.84
2023-05-22T11:49:13.350Z,100255.89
2023-05-22T11:51:43.961Z,100262.59
2023-05-22T11:54:14.413Z,100255.84
2023-05-22T11:56:46.343Z,100255.71
2023-05-22T11:59:16.913Z,100253.85
2023-05-22T12:01:50.175Z,100251.77
2023-05-22T12:04:20.690Z,100249.41
2023-05-22T12:06:51.587Z,100250.69
2023-05-22T12:09:23.287Z,100247.11
2023-05-22T12:11:55.906Z,100248.23
2023-05-22T12:14:29.357Z,100246.54
2023-05-22T12:17:01.363Z,100240.71
2023-05-22T12:19:32.688Z,100237.45
2023-05-22T12:22:05.415Z,100239.80
2023-05-22T12:24:42.182Z,100238.16
2023-05-22T12:27:13.536Z,100236.27
2023-05-22T12:29:44.907Z,100237.23
2023-05-22T12:32:15.479Z,100234.85
2023-05-22T12:34:47.926Z,100239.28
2023-05-22T12:37:23.260Z,100238.42
2023-05-22T12:40:01.596Z,100231.70
2023-05-22T12:42:32.163Z,100223.47
2023-05-22T12:45:02.708Z,100229.02
2023-05-22T12:47:33.512Z,100230.71
2023-05-22T12:50:04.114Z,100226.96
2023-05-22T12:52:36.120Z,100218.92
2023-05-22T12:55:08.170Z,100225.89
2023-05-22T12:57:38.900Z,100225.52
2023-05-22T13:00:11.765Z,100227.40
2023-05-22T13:02:42.622Z,100225.81
2023-05-22T13:05:13.397Z,100217.41
2023-05-22T13:07:44.037Z,100217.39
2023-05-22T13:10:14.866Z,100217.67
2023-05-22T13:12:47.143Z,100215.34
2023-05-22T13:15:17.770Z,100211.81
2023-05-22T13:17:48.291Z,100210.02
2023-05-22T13:20:18.817Z,100208.98
2023-05-22T13:22:49.317Z,100210.25
2023-05-22T13:25:20.047Z,100203.66
2023-05-22T13:27:50.631Z,100203.17
2023-05-22T13:30:21.111Z,100193.07
2023-05-22T13:32:51.809Z,100192.42
2023-05-22T13:35:22.369Z,100191.33
2023-05-22T13:37:53.290Z,100187.89
2023-05-22T13:40:23.953Z,100179.76
2023-05-22T13:42:55.051Z,100181.45
2023-05-22T13:45:26.521Z,100185.67
2023-05-22T13:47:55.978Z,100183.77
2023-05-22T13:50:26.494Z,100178.62
2023-05-22T13:52:57.176Z,100171.47
2023-05-22T13:55:27.978Z,100169.93
2023-05-22T13:57:58.985Z,100170.61
2023-05-22T14:00:29.732Z,100165.86
2023-05-22T14:03:00.620Z,100164.48
2023-05-22T14:05:32.105Z,100164.63
2023-05-22T14:08:02.719Z,100162.68
2023-05-22T14:10:34.658Z,100158.63
2023-05-22T14:13:05.279Z,100154.11
2023-05-22T14:15:35.837Z,100153.21
2023-05-22T14:18:06.742Z,100155.13
2023-05-22T14:20:37.315Z,100151.98
2023-05-22T14:23:07.962Z,100151.50
2023-05-22T14:25:42.896Z,100144.17
2023-05-22T14:28:14.177Z,100140.36
2023-05-22T14:30:44.816Z,100137.58
2023-05-22T14:33:15.755Z,100136.16
2023-05-22T14:35:46.352Z,100140.45
2023-05-22T14:38:16.966Z,100140.29
2023-05-22T14:40:47.694Z,100135.34
2023-05-22T14:43:18.232Z,100131.64
2023-05-22T14:45:48.700Z,100129.87
2023-05-22T14:48:19.359Z,100133.69
2023-05-22T14:51:19.055Z,100128.60
2023-05-22T14:54:04.457Z,100126.60
2023-05-22T14:56:35.053Z,100129.67
2023-05-22T14:59:05.564Z,100125.40
2023-05-22T15:02:38.945Z,100127.96
2023-05-22T15:05:10.699Z,100122.45
2023-05-22T15:07:59.712Z,100118.41
2023-05-22T15:10:30.197Z,100113.36
2023-05-22T15:13:00.718Z,100112.99
2023-05-22T15:15:31.372Z,100108.83
2023-05-22T15:18:04.797Z,100107.48
2023-05-22T15:20:35.537Z,100103.16
2023-05-22T15:23:06.395Z,100102.89
2023-05-22T15:25:37.526Z,100101.95
2023-05-22T15:28:08.376Z,100096.60
2023-05-22T15:30:41.920Z,100090.23
2023-05-22T15:33:12.785Z,100088.82
2023-05-22T15:35:46.646Z,100084.70
2023-05-22T15:38:17.416Z,100082.72
2023-05-22T15:40:48.038Z,100079.73
2023-05-22T15:43:18.898Z,100083.55
2023-05-22T15:45:50.526Z,100079.13
2023-05-22T15:48:21.169Z,100077.52
2023-05-22T15:50:51.636Z,100073.39
2023-05-22T15:53:22.826Z,100068.54
2023-05-22T15:55:54.639Z,100069.13
2023-05-22T15:58:25.150Z,100069.44
2023-05-22T16:00:56.037Z,100069.52
2023-05-22T16:03:26.877Z,100060.59
2023-05-22T16:05:57.563Z,100057.44
2023-05-22T16:09:19.444Z,100056.95
2023-05-22T16:13:02.286Z,100052.59
2023-05-22T16:15:34.221Z,100052.61
2023-05-22T16:18:04.921Z,100049.85
2023-05-22T16:20:35.556Z,100048.13
2023-05-22T16:23:06.125Z,100050.41
2023-05-22T16:25:36.689Z,100047.45
2023-05-22T16:28:07.426Z,100046.23
2023-05-22T16:30:39.995Z,100047.88
2023-05-22T16:33:10.980Z,100049.86
2023-05-22T16:35:46.870Z,100050.80
2023-05-22T16:38:17.562Z,100052.47
2023-05-22T16:40:48.084Z,100052.76
2023-05-22T16:43:18.564Z,100050.52
2023-05-22T16:45:51.342Z,100053.59
2023-05-22T16:48:22.022Z,100058.75
2023-05-22T16:50:52.542Z,100062.05
2023-05-22T16:53:23.318Z,100060.08
2023-05-22T16:55:54.106Z,100063.88
2023-05-22T16:58:24.611Z,100066.45
2023-05-22T17:00:56.084Z,100065.54
2023-05-22T17:03:27.077Z,100062.73
2023-05-22T17:05:57.902Z,100065.69
2023-05-22T17:08:28.472Z,100066.71
2023-05-22T17:10:59.016Z,100063.52
2023-05-22T17:13:29.534Z,100067.48
2023-05-22T17:16:00.277Z,100064.15
2023-05-22T17:18:30.790Z,100068.08
2023-05-22T17:21:01.283Z,100067.30
2023-05-22T17:23:31.847Z,100069.67
2023-05-22T17:26:02.435Z,100071.70
2023-05-22T17:28:33.450Z,100072.85
2023-05-22T17:31:03.959Z,100069.13
2023-05-22T17:33:34.859Z,100070.45
2023-05-22T17:36:05.844Z,100068.60
2023-05-22T17:38:36.387Z,100066.58
2023-05-22T17:41:07.019Z,100068.92
2023-05-22T17:43:38.373Z,100064.16
2023-05-22T17:46:09.234Z,100059.89
2023-05-22T17:48:41.066Z,100060.69
2023-05-22T17:51:12.077Z,100057.48
2023-05-22T17:53:43.272Z,100056.85
2023-05-22T17:56:16.278Z,100062.52
2023-05-22T17:58:46.782Z,100062.95
2023-05-22T18:01:18.226Z,100062.36
2023-05-22T18:03:48.537Z,100067.15
2023-05-22T18:06:19.939Z,100061.33
2023-05-22T18:08:51.659Z,100058.30
2023-05-22T18:11:23.183Z,100057.86
2023-05-22T18:13:53.664Z,100057.08
2023-05-22T18:16:26.871Z,100056.84
2023-05-22T18:18:59.624Z,100055.87
2023-05-22T18:21:30.217Z,100051.41
2023-05-22T18:24:00.784Z,100054.48
2023-05-22T18:26:31.532Z,100052.83
2023-05-22T18:29:02.049Z,100052.73
2023-05-22T18:31:32.708Z,100055.42
2023-05-22T18:34:05.327Z,100049.59
2023-05-22T18:36:35.842Z,100051.42
2023-05-22T18:39:07.434Z,100053.24
2023-05-22T18:41:38.882Z,100054.04
2023-05-22T18:44:08.667Z,100052.91
2023-05-22T18:46:39.216Z,100054.95
2023-05-22T18:49:09.793Z,100058.86
2023-05-22T18:51:40.313Z,100062.60
2023-05-22T18:54:10.855Z,100062.81
2023-05-22T18:56:41.471Z,100065.27
2023-05-22T18:59:11.982Z,100065.80
2023-05-22T19:01:42.673Z,100061.07
2023-05-22T19:04:13.403Z,100063.50
2023-05-22T19:06:43.883Z,100062.81
2023-05-22T19:09:14.739Z,100061.95
2023-05-22T19:11:45.241Z,100060.21
2023-05-22T19:14:16.076Z,100061.25
2023-05-22T19:16:46.711Z,100063.36
2023-05-22T19:19:17.366Z,100061.97
2023-05-22T19:21:48.045Z,100064.77
2023-05-22T19:24:18.537Z,100070.90
2023-05-22T19:26:49.068Z,100065.76
2023-05-22T19:29:19.582Z,100065.70
2023-05-22T19:31:51.241Z,100069.77
2023-05-22T19:34:21.767Z,100067.27
2023-05-22T19:36:57.515Z,100066.31
2023-05-22T19:39:28.036Z,100065.36
2023-05-22T19:41:58.570Z,100068.06
2023-05-22T19:44:29.273Z,100072.00
2023-05-22T19:46:59.719Z,100074.85
2023-05-22T19:49:31.617Z,100079.80
2023-05-22T19:52:02.153Z,100079.55
2023-05-22T19:54:32.663Z,100081.19
2023-05-22T19:57:03.217Z,100078.63
2023-05-22T19:59:36.493Z,100079.39
2023-05-22T20:02:08.581Z,100078.58
2023-05-22T20:04:43.064Z,100080.23
2023-05-22T20:07:13.961Z,100083.06
2023-05-22T20:09:45.260Z,100075.64
2023-05-22T20:12:17.619Z,100075.52
2023-05-22T20:14:48.490Z,100076.44
2023-05-22T20:17:22.439Z,100072.67
2023-05-22T20:19:54.086Z,100075.16
2023-05-22T20:22:23.099Z,100074.01
2023-05-22T20:24:53.615Z,100073.08
2023-05-22T20:27:24.137Z,100067.73
2023-05-22T20:29:55.030Z,100070.55
2023-05-22T20:32:25.743Z,100068.52
2023-05-22T20:34:56.594Z,100071.75
2023-05-22T20:37:27.122Z,100067.81
2023-05-22T20:40:09.488Z,100071.00
2023-05-22T20:42:40.977Z,100077.14
2023-05-22T20:45:14.780Z,100070.45
2023-05-22T20:47:47.123Z,100068.91
2023-05-22T20:50:17.856Z,100072.08
2023-05-22T20:52:48.350Z,100069.52
2023-05-22T20:55:18.877Z,100068.34
2023-05-22T20:57:49.346Z,100067.88
2023-05-22T21:00:20.739Z,100071.08
2023-05-22T21:02:51.368Z,100066.79
2023-05-22T21:05:22.077Z,100066.48
2023-05-22T21:07:52.573Z,100065.52
2023-05-22T21:10:23.077Z,100065.61
2023-05-22T21:12:53.581Z,100067.95
2023-05-22T21:15:24.252Z,100070.45
2023-05-22T21:17:54.822Z,100068.78
2023-05-22T21:20:25.684Z,100066.92
2023-05-22T21:22:56.197Z,100064.89
2023-05-22T21:25:26.651Z,100062.88
2023-05-22T21:27:57.892Z,100059.29
2023-05-22T21:30:28.408Z,100056.04
2023-05-22T21:32:58.930Z,100056.10
2023-05-22T21:35:29.595Z,100054.92
2023-05-22T21:38:00.177Z,100056.69
2023-05-22T21:40:30.659Z,100057.42
2023-05-22T21:43:01.177Z,100052.44
2023-05-22T21:45:32.231Z,100052.44
2023-05-22T21:48:02.756Z,100052.13
2023-05-22T21:50:33.728Z,100050.77
2023-05-22T21:53:05.804Z,100050.83
2023-05-22T21:55:36.359Z,100048.09
2023-05-22T21:58:06.869Z,100049.67
2023-05-22T22:00:37.430Z,100044.30
2023-05-22T22:03:08.480Z,100042.93
2023-05-22T22:05:39.601Z,100039.30
2023-05-22T22:08:10.061Z,100045.77
2023-05-22T22:10:40.727Z,100043.37
2023-05-22T22:13:11.571Z,100044.80
2023-05-22T22:15:42.099Z,100048.30
2023-05-22T22:18:14.948Z,100048.50
2023-05-22T22:20:45.785Z,100047.14
2023-05-22T22:23:16.475Z,100041.44
2023-05-22T22:25:47.053Z,100039.20
2023-05-22T22:28:17.532Z,100040.61
2023-05-22T22:30:48.381Z,100038.39
2023-05-22T22:33:18.918Z,100036.88
2023-05-22T22:35:49.761Z,100036.25
2023-05-22T22:38:20.594Z,100039.08
2023-05-22T22:40:51.358Z,100037.22
2023-05-22T22:43:21.866Z,100033.12
2023-05-22T22:45:52.472Z,100031.11
2023-05-22T22:48:23.027Z,100032.60
2023-05-22T22:50:53.774Z,100029.90
2023-05-22T22:53:24.300Z,100032.23
2023-05-22T22:55:59.238Z,100029.75
2023-05-22T22:58:29.848Z,100029.50
2023-05-22T23:01:00.399Z,100026.27
2023-05-22T23:03:30.941Z,100027.73
2023-05-22T23:06:01.542Z,100028.48
2023-05-22T23:08:32.032Z,100029.08
2023-05-22T23:11:02.648Z,100026.71
2023-05-22T23:13:33.271Z,100024.20
2023-05-22T23:16:03.926Z,100025.15
2023-05-22T23:18:34.484Z,100019.51
2023-05-22T23:21:05.217Z,100021.34
2023-05-22T23:23:35.758Z,100020.55
2023-05-22T23:26:06.673Z,100017.70
2023-05-22T23:28:37.289Z,100013.59
2023-05-22T23:31:09.731Z,100008.64
2023-05-22T23:33:40.422Z,100009.23
2023-05-22T23:36:11.096Z,100011.02
2023-05-22T23:38:41.704Z,100009.84
2023-05-22T23:41:12.196Z,100006.78
2023-05-22T23:43:42.701Z,100002.64
2023-05-22T23:46:14.226Z,99999.73
2023-05-22T23:48:43.650Z,100000.98
2023-05-22T23:51:14.742Z,99997.08
2023-05-22T23:53:46.081Z,99992.08
2023-05-22T23:56:17.105Z,99994.71
2023-05-22T23:58:47.643Z,99991.48
